sensor_id;sensor_type;location;lat;lon;timestamp;P1;durP1;ratioP1;P2;durP2;ratioP2
76903;SDS011;65865;51.698;-0.292;2023-02-23T00:02:24;2.72;;;1.20;;
76903;SDS011;65865;51.698;-0.292;2023-02-23T00:04:50;2.88;;;1.08;;
76903;SDS011;65865;51.698;-0.292;2023-02-23T00:07:16;2.55;;;0.80;;
76903;SDS011;65865;51.698;-0.292;2023-02-23T00:09:44;2.63;;;1.02;;
76903;SDS011;65865;51.698;-0.292;2023-02-23T00:12:11;2.65;;;1.20;;
76903;SDS011;65865;51.698;-0.292;2023-02-23T00:14:37;1.85;;;0.70;;
76903;SDS011;65865;51.698;-0.292;2023-02-23T00:17:03;2.10;;;1.02;;
76903;SDS011;65865;51.698;-0.292;2023-02-23T00:19:34;1.95;;;1.08;;
76903;SDS011;65865;51.698;-0.292;2023-02-23T00:22:01;2.10;;;1.00;;
76903;SDS011;65865;51.698;-0.292;2023-02-23T00:24:27;2.13;;;0.98;;
76903;SDS011;65865;51.698;-0.292;2023-02-23T00:26:54;1.92;;;0.80;;
76903;SDS011;65865;51.698;-0.292;2023-02-23T00:29:21;2.00;;;0.80;;
76903;SDS011;65865;51.698;-0.292;2023-02-23T00:31:47;1.98;;;0.90;;
76903;SDS011;65865;51.698;-0.292;2023-02-23T00:34:14;2.03;;;0.70;;
76903;SDS011;65865;51.698;-0.292;2023-02-23T00:36:41;2.25;;;1.00;;
76903;SDS011;65865;51.698;-0.292;2023-02-23T00:39:08;2.40;;;0.95;;
76903;SDS011;65865;51.698;-0.292;2023-02-23T00:41:45;2.45;;;0.82;;
76903;SDS011;65865;51.698;-0.292;2023-02-23T00:44:11;1.88;;;0.98;;
76903;SDS011;65865;51.698;-0.292;2023-02-23T00:49:07;1.55;;;0.70;;
76903;SDS011;65865;51.698;-0.292;2023-02-23T00:51:33;1.95;;;0.93;;
76903;SDS011;65865;51.698;-0.292;2023-02-23T00:54:01;1.83;;;0.70;;
76903;SDS011;65865;51.698;-0.292;2023-02-23T00:56:27;2.58;;;0.80;;
76903;SDS011;65865;51.698;-0.292;2023-02-23T00:58:53;1.90;;;0.80;;
76903;SDS011;65865;51.698;-0.292;2023-02-23T01:01:19;2.03;;;0.70;;
76903;SDS011;65865;51.698;-0.292;2023-02-23T01:03:45;2.00;;;0.70;;
76903;SDS011;65865;51.698;-0.292;2023-02-23T01:06:12;2.10;;;0.82;;
76903;SDS011;65865;51.698;-0.292;2023-02-23T01:08:43;1.10;;;0.50;;
76903;SDS011;65865;51.698;-0.292;2023-02-23T01:11:12;2.05;;;0.70;;
76903;SDS011;65865;51.698;-0.292;2023-02-23T01:13:39;3.17;;;0.60;;
76903;SDS011;65865;51.698;-0.292;2023-02-23T01:16:07;1.65;;;0.65;;
76903;SDS011;65865;51.698;-0.292;2023-02-23T01:18:33;2.67;;;1.00;;
76903;SDS011;65865;51.698;-0.292;2023-02-23T01:21:00;3.25;;;0.95;;
76903;SDS011;65865;51.698;-0.292;2023-02-23T01:23:26;2.78;;;0.90;;
76903;SDS011;65865;51.698;-0.292;2023-02-23T01:25:52;3.83;;;0.98;;
76903;SDS011;65865;51.698;-0.292;2023-02-23T01:28:18;3.17;;;1.08;;
76903;SDS011;65865;51.698;-0.292;2023-02-23T01:30:44;2.30;;;1.02;;
76903;SDS011;65865;51.698;-0.292;2023-02-23T01:33:10;2.58;;;1.02;;
76903;SDS011;65865;51.698;-0.292;2023-02-23T01:35:37;3.13;;;1.20;;
76903;SDS011;65865;51.698;-0.292;2023-02-23T01:38:03;2.70;;;1.00;;
76903;SDS011;65865;51.698;-0.292;2023-02-23T01:40:30;2.75;;;1.15;;
76903;SDS011;65865;51.698;-0.292;2023-02-23T01:43:13;2.83;;;1.02;;
76903;SDS011;65865;51.698;-0.292;2023-02-23T01:45:40;2.88;;;1.13;;
76903;SDS011;65865;51.698;-0.292;2023-02-23T01:48:16;2.80;;;1.02;;
76903;SDS011;65865;51.698;-0.292;2023-02-23T01:50:53;3.00;;;1.25;;
76903;SDS011;65865;51.698;-0.292;2023-02-23T01:53:20;3.53;;;1.27;;
76903;SDS011;65865;51.698;-0.292;2023-02-23T01:55:51;3.58;;;1.00;;
76903;SDS011;65865;51.698;-0.292;2023-02-23T01:58:19;2.72;;;1.33;;
76903;SDS011;65865;51.698;-0.292;2023-02-23T02:00:48;3.53;;;0.90;;
76903;SDS011;65865;51.698;-0.292;2023-02-23T02:03:21;2.90;;;1.20;;
76903;SDS011;65865;51.698;-0.292;2023-02-23T02:05:48;4.40;;;1.25;;
76903;SDS011;65865;51.698;-0.292;2023-02-23T02:08:15;2.28;;;0.80;;
76903;SDS011;65865;51.698;-0.292;2023-02-23T02:10:43;1.77;;;0.90;;
76903;SDS011;65865;51.698;-0.292;2023-02-23T02:13:14;2.25;;;1.05;;
76903;SDS011;65865;51.698;-0.292;2023-02-23T02:15:47;3.60;;;0.60;;
76903;SDS011;65865;51.698;-0.292;2023-02-23T02:18:27;2.20;;;0.75;;
76903;SDS011;65865;51.698;-0.292;2023-02-23T02:26:20;3.17;;;0.90;;
76903;SDS011;65865;51.698;-0.292;2023-02-23T02:42:08;1.85;;;0.77;;
76903;SDS011;65865;51.698;-0.292;2023-02-23T02:47:27;2.17;;;0.75;;
76903;SDS011;65865;51.698;-0.292;2023-02-23T02:49:57;2.53;;;1.13;;
76903;SDS011;65865;51.698;-0.292;2023-02-23T02:52:27;3.97;;;1.05;;
76903;SDS011;65865;51.698;-0.292;2023-02-23T02:54:55;3.22;;;1.05;;
76903;SDS011;65865;51.698;-0.292;2023-02-23T02:57:23;2.67;;;0.90;;
76903;SDS011;65865;51.698;-0.292;2023-02-23T02:59:50;2.38;;;0.70;;
76903;SDS011;65865;51.698;-0.292;2023-02-23T03:02:38;2.58;;;0.80;;
76903;SDS011;65865;51.698;-0.292;2023-02-23T03:05:33;2.08;;;0.60;;
76903;SDS011;65865;51.698;-0.292;2023-02-23T03:08:27;1.98;;;0.80;;
76903;SDS011;65865;51.698;-0.292;2023-02-23T03:11:15;3.28;;;0.73;;
76903;SDS011;65865;51.698;-0.292;2023-02-23T03:14:35;2.10;;;0.68;;
76903;SDS011;65865;51.698;-0.292;2023-02-23T03:20:25;2.70;;;0.90;;
76903;SDS011;65865;51.698;-0.292;2023-02-23T03:26:15;2.10;;;0.60;;
76903;SDS011;65865;51.698;-0.292;2023-02-23T03:32:10;2.33;;;0.60;;
76903;SDS011;65865;51.698;-0.292;2023-02-23T03:35:03;1.73;;;0.77;;
76903;SDS011;65865;51.698;-0.292;2023-02-23T03:37:51;2.33;;;0.88;;
76903;SDS011;65865;51.698;-0.292;2023-02-23T03:40:40;2.63;;;0.90;;
76903;SDS011;65865;51.698;-0.292;2023-02-23T03:43:31;3.13;;;0.90;;
76903;SDS011;65865;51.698;-0.292;2023-02-23T03:46:18;2.72;;;0.73;;
76903;SDS011;65865;51.698;-0.292;2023-02-23T03:49:04;3.30;;;0.90;;
76903;SDS011;65865;51.698;-0.292;2023-02-23T03:51:52;2.33;;;0.80;;
76903;SDS011;65865;51.698;-0.292;2023-02-23T03:54:39;2.83;;;0.70;;
76903;SDS011;65865;51.698;-0.292;2023-02-23T03:57:25;2.63;;;0.90;;
76903;SDS011;65865;51.698;-0.292;2023-02-23T04:00:14;1.63;;;0.50;;
76903;SDS011;65865;51.698;-0.292;2023-02-23T04:03:00;2.10;;;0.85;;
76903;SDS011;65865;51.698;-0.292;2023-02-23T04:05:46;2.40;;;1.10;;
76903;SDS011;65865;51.698;-0.292;2023-02-23T04:08:34;2.53;;;0.82;;
76903;SDS011;65865;51.698;-0.292;2023-02-23T04:11:26;2.83;;;0.70;;
76903;SDS011;65865;51.698;-0.292;2023-02-23T04:14:17;2.33;;;0.70;;
76903;SDS011;65865;51.698;-0.292;2023-02-23T04:16:44;3.85;;;0.60;;
76903;SDS011;65865;51.698;-0.292;2023-02-23T04:19:10;1.73;;;0.60;;
76903;SDS011;65865;51.698;-0.292;2023-02-23T04:21:37;2.28;;;0.70;;
76903;SDS011;65865;51.698;-0.292;2023-02-23T04:24:03;2.08;;;0.70;;
76903;SDS011;65865;51.698;-0.292;2023-02-23T04:26:29;2.58;;;0.75;;
76903;SDS011;65865;51.698;-0.292;2023-02-23T04:28:55;2.80;;;0.88;;
76903;SDS011;65865;51.698;-0.292;2023-02-23T04:31:21;3.22;;;0.85;;
76903;SDS011;65865;51.698;-0.292;2023-02-23T04:33:48;3.25;;;0.80;;
76903;SDS011;65865;51.698;-0.292;2023-02-23T04:36:14;2.33;;;0.68;;
76903;SDS011;65865;51.698;-0.292;2023-02-23T04:38:41;2.35;;;0.75;;
76903;SDS011;65865;51.698;-0.292;2023-02-23T04:41:07;1.95;;;0.57;;
76903;SDS011;65865;51.698;-0.292;2023-02-23T04:43:34;2.38;;;0.52;;
76903;SDS011;65865;51.698;-0.292;2023-02-23T04:46:00;2.22;;;0.90;;
76903;SDS011;65865;51.698;-0.292;2023-02-23T04:48:26;1.55;;;0.68;;
76903;SDS011;65865;51.698;-0.292;2023-02-23T04:50:52;2.97;;;0.90;;
76903;SDS011;65865;51.698;-0.292;2023-02-23T04:53:18;2.42;;;0.75;;
76903;SDS011;65865;51.698;-0.292;2023-02-23T04:55:44;1.92;;;0.65;;
76903;SDS011;65865;51.698;-0.292;2023-02-23T04:58:10;2.65;;;0.77;;
76903;SDS011;65865;51.698;-0.292;2023-02-23T05:00:39;2.40;;;0.80;;
76903;SDS011;65865;51.698;-0.292;2023-02-23T05:03:05;2.38;;;0.60;;
76903;SDS011;65865;51.698;-0.292;2023-02-23T05:05:31;3.63;;;1.00;;
76903;SDS011;65865;51.698;-0.292;2023-02-23T05:07:57;1.80;;;0.60;;
76903;SDS011;65865;51.698;-0.292;2023-02-23T05:10:23;3.08;;;0.80;;
76903;SDS011;65865;51.698;-0.292;2023-02-23T05:12:50;1.38;;;0.52;;
76903;SDS011;65865;51.698;-0.292;2023-02-23T05:15:16;2.08;;;0.70;;
76903;SDS011;65865;51.698;-0.292;2023-02-23T05:17:42;3.28;;;0.70;;
76903;SDS011;65865;51.698;-0.292;2023-02-23T05:20:09;2.35;;;0.73;;
76903;SDS011;65865;51.698;-0.292;2023-02-23T05:22:35;1.95;;;0.70;;
76903;SDS011;65865;51.698;-0.292;2023-02-23T05:25:02;2.95;;;0.60;;
76903;SDS011;65865;51.698;-0.292;2023-02-23T05:27:28;2.35;;;0.50;;
76903;SDS011;65865;51.698;-0.292;2023-02-23T05:29:54;1.13;;;0.40;;
76903;SDS011;65865;51.698;-0.292;2023-02-23T05:32:20;1.92;;;0.60;;
76903;SDS011;65865;51.698;-0.292;2023-02-23T05:34:46;1.75;;;0.45;;
76903;SDS011;65865;51.698;-0.292;2023-02-23T05:37:12;0.93;;;0.40;;
76903;SDS011;65865;51.698;-0.292;2023-02-23T05:39:38;1.42;;;0.50;;
76903;SDS011;65865;51.698;-0.292;2023-02-23T05:42:04;2.58;;;0.47;;
76903;SDS011;65865;51.698;-0.292;2023-02-23T05:44:30;2.90;;;0.60;;
76903;SDS011;65865;51.698;-0.292;2023-02-23T05:46:56;1.45;;;0.50;;
76903;SDS011;65865;51.698;-0.292;2023-02-23T05:49:22;1.33;;;0.55;;
76903;SDS011;65865;51.698;-0.292;2023-02-23T05:51:48;1.65;;;0.40;;
76903;SDS011;65865;51.698;-0.292;2023-02-23T05:54:15;1.52;;;0.63;;
76903;SDS011;65865;51.698;-0.292;2023-02-23T05:56:41;0.93;;;0.43;;
76903;SDS011;65865;51.698;-0.292;2023-02-23T05:59:07;1.75;;;0.30;;
76903;SDS011;65865;51.698;-0.292;2023-02-23T06:01:33;2.45;;;0.55;;
76903;SDS011;65865;51.698;-0.292;2023-02-23T06:03:59;1.77;;;0.40;;
76903;SDS011;65865;51.698;-0.292;2023-02-23T06:06:25;1.58;;;0.28;;
76903;SDS011;65865;51.698;-0.292;2023-02-23T06:08:52;2.17;;;0.57;;
76903;SDS011;65865;51.698;-0.292;2023-02-23T06:11:19;1.35;;;0.45;;
76903;SDS011;65865;51.698;-0.292;2023-02-23T06:13:45;1.15;;;0.30;;
76903;SDS011;65865;51.698;-0.292;2023-02-23T06:16:11;1.02;;;0.50;;
76903;SDS011;65865;51.698;-0.292;2023-02-23T06:18:37;1.50;;;0.38;;
76903;SDS011;65865;51.698;-0.292;2023-02-23T06:21:03;1.85;;;0.35;;
76903;SDS011;65865;51.698;-0.292;2023-02-23T06:23:30;2.25;;;0.50;;
76903;SDS011;65865;51.698;-0.292;2023-02-23T06:25:57;1.63;;;0.40;;
76903;SDS011;65865;51.698;-0.292;2023-02-23T06:28:24;1.05;;;0.40;;
76903;SDS011;65865;51.698;-0.292;2023-02-23T06:30:51;1.13;;;0.40;;
76903;SDS011;65865;51.698;-0.292;2023-02-23T06:33:17;1.00;;;0.40;;
76903;SDS011;65865;51.698;-0.292;2023-02-23T06:35:43;1.35;;;0.40;;
76903;SDS011;65865;51.698;-0.292;2023-02-23T06:38:10;1.23;;;0.40;;
76903;SDS011;65865;51.698;-0.292;2023-02-23T06:40:36;1.02;;;0.43;;
76903;SDS011;65865;51.698;-0.292;2023-02-23T06:43:02;1.35;;;0.30;;
76903;SDS011;65865;51.698;-0.292;2023-02-23T06:45:29;1.10;;;0.40;;
76903;SDS011;65865;51.698;-0.292;2023-02-23T06:47:56;1.20;;;0.30;;
76903;SDS011;65865;51.698;-0.292;2023-02-23T06:50:22;1.00;;;0.30;;
76903;SDS011;65865;51.698;-0.292;2023-02-23T06:52:48;1.05;;;0.30;;
76903;SDS011;65865;51.698;-0.292;2023-02-23T06:55:14;2.92;;;0.32;;
76903;SDS011;65865;51.698;-0.292;2023-02-23T06:57:40;1.48;;;0.30;;
76903;SDS011;65865;51.698;-0.292;2023-02-23T07:00:08;0.60;;;0.20;;
76903;SDS011;65865;51.698;-0.292;2023-02-23T07:02:34;1.30;;;0.30;;
76903;SDS011;65865;51.698;-0.292;2023-02-23T07:05:01;1.35;;;0.50;;
76903;SDS011;65865;51.698;-0.292;2023-02-23T07:07:27;0.80;;;0.20;;
76903;SDS011;65865;51.698;-0.292;2023-02-23T07:09:53;1.13;;;0.40;;
76903;SDS011;65865;51.698;-0.292;2023-02-23T07:12:19;0.90;;;0.20;;
76903;SDS011;65865;51.698;-0.292;2023-02-23T07:14:45;0.55;;;0.10;;
76903;SDS011;65865;51.698;-0.292;2023-02-23T07:17:11;1.17;;;0.40;;
76903;SDS011;65865;51.698;-0.292;2023-02-23T07:19:37;0.93;;;0.20;;
76903;SDS011;65865;51.698;-0.292;2023-02-23T07:22:03;0.77;;;0.20;;
76903;SDS011;65865;51.698;-0.292;2023-02-23T07:24:29;1.15;;;0.20;;
76903;SDS011;65865;51.698;-0.292;2023-02-23T07:26:56;1.38;;;0.40;;
76903;SDS011;65865;51.698;-0.292;2023-02-23T07:29:22;1.77;;;0.30;;
76903;SDS011;65865;51.698;-0.292;2023-02-23T07:31:48;0.68;;;0.30;;
76903;SDS011;65865;51.698;-0.292;2023-02-23T07:34:14;1.70;;;0.30;;
76903;SDS011;65865;51.698;-0.292;2023-02-23T07:36:40;0.52;;;0.20;;
76903;SDS011;65865;51.698;-0.292;2023-02-23T07:39:06;0.95;;;0.20;;
76903;SDS011;65865;51.698;-0.292;2023-02-23T07:41:32;0.68;;;0.30;;
76903;SDS011;65865;51.698;-0.292;2023-02-23T07:43:58;0.68;;;0.30;;
76903;SDS011;65865;51.698;-0.292;2023-02-23T07:46:25;1.65;;;0.20;;
76903;SDS011;65865;51.698;-0.292;2023-02-23T07:48:51;1.17;;;0.20;;
76903;SDS011;65865;51.698;-0.292;2023-02-23T07:51:17;1.30;;;0.30;;
76903;SDS011;65865;51.698;-0.292;2023-02-23T07:53:43;1.27;;;0.30;;
76903;SDS011;65865;51.698;-0.292;2023-02-23T07:56:10;2.25;;;0.38;;
76903;SDS011;65865;51.698;-0.292;2023-02-23T07:58:37;1.05;;;0.20;;
76903;SDS011;65865;51.698;-0.292;2023-02-23T08:01:03;0.35;;;0.20;;
76903;SDS011;65865;51.698;-0.292;2023-02-23T08:03:29;0.80;;;0.20;;
76903;SDS011;65865;51.698;-0.292;2023-02-23T08:05:55;1.00;;;0.20;;
76903;SDS011;65865;51.698;-0.292;2023-02-23T08:08:21;0.95;;;0.20;;
76903;SDS011;65865;51.698;-0.292;2023-02-23T08:10:47;0.65;;;0.17;;
76903;SDS011;65865;51.698;-0.292;2023-02-23T08:13:14;0.60;;;0.30;;
76903;SDS011;65865;51.698;-0.292;2023-02-23T08:15:40;0.68;;;0.10;;
76903;SDS011;65865;51.698;-0.292;2023-02-23T08:18:06;1.33;;;0.22;;
76903;SDS011;65865;51.698;-0.292;2023-02-23T08:20:32;0.98;;;0.30;;
76903;SDS011;65865;51.698;-0.292;2023-02-23T08:22:58;0.75;;;0.20;;
76903;SDS011;65865;51.698;-0.292;2023-02-23T08:25:25;1.77;;;0.10;;
76903;SDS011;65865;51.698;-0.292;2023-02-23T08:27:54;1.48;;;0.40;;
76903;SDS011;65865;51.698;-0.292;2023-02-23T08:30:20;1.05;;;0.20;;
76903;SDS011;65865;51.698;-0.292;2023-02-23T08:32:46;1.52;;;0.10;;
76903;SDS011;65865;51.698;-0.292;2023-02-23T08:35:13;1.08;;;0.30;;
76903;SDS011;65865;51.698;-0.292;2023-02-23T08:37:39;0.68;;;0.10;;
76903;SDS011;65865;51.698;-0.292;2023-02-23T08:40:09;1.00;;;0.20;;
76903;SDS011;65865;51.698;-0.292;2023-02-23T08:42:36;0.80;;;0.20;;
76903;SDS011;65865;51.698;-0.292;2023-02-23T08:45:02;1.33;;;0.13;;
76903;SDS011;65865;51.698;-0.292;2023-02-23T08:47:28;0.75;;;0.20;;
76903;SDS011;65865;51.698;-0.292;2023-02-23T08:49:54;0.85;;;0.22;;
76903;SDS011;65865;51.698;-0.292;2023-02-23T08:52:20;0.93;;;0.30;;
76903;SDS011;65865;51.698;-0.292;2023-02-23T08:54:48;0.68;;;0.20;;
76903;SDS011;65865;51.698;-0.292;2023-02-23T08:57:14;5.25;;;0.40;;
76903;SDS011;65865;51.698;-0.292;2023-02-23T08:59:40;2.17;;;0.22;;
76903;SDS011;65865;51.698;-0.292;2023-02-23T09:02:07;1.70;;;0.10;;
76903;SDS011;65865;51.698;-0.292;2023-02-23T09:04:36;2.63;;;0.25;;
76903;SDS011;65865;51.698;-0.292;2023-02-23T09:07:03;0.90;;;0.20;;
76903;SDS011;65865;51.698;-0.292;2023-02-23T09:09:29;3.47;;;0.30;;
76903;SDS011;65865;51.698;-0.292;2023-02-23T09:11:55;2.10;;;0.30;;
76903;SDS011;65865;51.698;-0.292;2023-02-23T09:14:21;1.77;;;0.35;;
76903;SDS011;65865;51.698;-0.292;2023-02-23T09:16:47;3.00;;;0.47;;
76903;SDS011;65865;51.698;-0.292;2023-02-23T09:19:13;2.70;;;0.30;;
76903;SDS011;65865;51.698;-0.292;2023-02-23T09:21:39;2.70;;;0.40;;
76903;SDS011;65865;51.698;-0.292;2023-02-23T09:24:05;3.50;;;0.40;;
76903;SDS011;65865;51.698;-0.292;2023-02-23T09:26:32;4.28;;;0.52;;
76903;SDS011;65865;51.698;-0.292;2023-02-23T09:29:04;4.20;;;0.60;;
76903;SDS011;65865;51.698;-0.292;2023-02-23T09:31:30;1.42;;;0.28;;
76903;SDS011;65865;51.698;-0.292;2023-02-23T09:33:56;2.80;;;0.43;;
76903;SDS011;65865;51.698;-0.292;2023-02-23T09:36:24;2.67;;;0.30;;
76903;SDS011;65865;51.698;-0.292;2023-02-23T09:38:51;2.47;;;0.40;;
76903;SDS011;65865;51.698;-0.292;2023-02-23T09:43:49;2.20;;;0.35;;
76903;SDS011;65865;51.698;-0.292;2023-02-23T09:49:03;2.78;;;0.50;;
76903;SDS011;65865;51.698;-0.292;2023-02-23T09:53:57;1.83;;;0.30;;
76903;SDS011;65865;51.698;-0.292;2023-02-23T09:58:50;1.70;;;0.40;;
76903;SDS011;65865;51.698;-0.292;2023-02-23T10:07:05;1.85;;;0.40;;
76903;SDS011;65865;51.698;-0.292;2023-02-23T10:09:45;2.13;;;0.60;;
76903;SDS011;65865;51.698;-0.292;2023-02-23T10:22:44;1.60;;;0.30;;
76903;SDS011;65865;51.698;-0.292;2023-02-23T10:25:22;1.98;;;0.40;;
76903;SDS011;65865;51.698;-0.292;2023-02-23T10:27:49;1.83;;;0.45;;
76903;SDS011;65865;51.698;-0.292;2023-02-23T10:35:18;1.45;;;0.28;;
76903;SDS011;65865;51.698;-0.292;2023-02-23T10:37:48;1.42;;;0.32;;
76903;SDS011;65865;51.698;-0.292;2023-02-23T10:40:15;1.88;;;0.40;;
76903;SDS011;65865;51.698;-0.292;2023-02-23T10:42:42;1.80;;;0.40;;
76903;SDS011;65865;51.698;-0.292;2023-02-23T10:45:15;2.17;;;0.30;;
76903;SDS011;65865;51.698;-0.292;2023-02-23T10:47:48;3.38;;;0.45;;
76903;SDS011;65865;51.698;-0.292;2023-02-23T10:50:15;3.38;;;0.30;;
76903;SDS011;65865;51.698;-0.292;2023-02-23T10:52:43;1.65;;;0.30;;
76903;SDS011;65865;51.698;-0.292;2023-02-23T10:55:23;2.10;;;0.47;;
76903;SDS011;65865;51.698;-0.292;2023-02-23T10:57:59;1.92;;;0.30;;
76903;SDS011;65865;51.698;-0.292;2023-02-23T11:00:26;2.28;;;0.40;;
76903;SDS011;65865;51.698;-0.292;2023-02-23T11:02:55;2.42;;;0.30;;
76903;SDS011;65865;51.698;-0.292;2023-02-23T11:08:08;1.05;;;0.25;;
76903;SDS011;65865;51.698;-0.292;2023-02-23T11:10:34;1.88;;;0.38;;
76903;SDS011;65865;51.698;-0.292;2023-02-23T11:13:02;6.47;;;0.60;;
76903;SDS011;65865;51.698;-0.292;2023-02-23T11:15:31;1.92;;;0.40;;
76903;SDS011;65865;51.698;-0.292;2023-02-23T11:18:04;4.57;;;0.38;;
76903;SDS011;65865;51.698;-0.292;2023-02-23T11:20:32;1.58;;;0.22;;
76903;SDS011;65865;51.698;-0.292;2023-02-23T11:23:14;3.22;;;0.32;;
76903;SDS011;65865;51.698;-0.292;2023-02-23T11:25:42;2.35;;;0.50;;
76903;SDS011;65865;51.698;-0.292;2023-02-23T11:28:19;2.78;;;0.55;;
76903;SDS011;65865;51.698;-0.292;2023-02-23T11:30:46;2.85;;;0.45;;
76903;SDS011;65865;51.698;-0.292;2023-02-23T11:33:28;2.47;;;0.50;;
76903;SDS011;65865;51.698;-0.292;2023-02-23T11:35:58;4.57;;;0.43;;
76903;SDS011;65865;51.698;-0.292;2023-02-23T11:38:27;3.03;;;0.30;;
76903;SDS011;65865;51.698;-0.292;2023-02-23T11:43:19;3.55;;;0.28;;
76903;SDS011;65865;51.698;-0.292;2023-02-23T11:45:47;6.97;;;0.80;;
76903;SDS011;65865;51.698;-0.292;2023-02-23T11:48:27;4.28;;;0.60;;
76903;SDS011;65865;51.698;-0.292;2023-02-23T11:50:55;3.33;;;0.50;;
76903;SDS011;65865;51.698;-0.292;2023-02-23T11:55:57;4.53;;;0.80;;
76903;SDS011;65865;51.698;-0.292;2023-02-23T12:01:15;5.22;;;0.80;;
76903;SDS011;65865;51.698;-0.292;2023-02-23T12:03:46;5.07;;;0.65;;
76903;SDS011;65865;51.698;-0.292;2023-02-23T12:08:44;2.72;;;0.68;;
76903;SDS011;65865;51.698;-0.292;2023-02-23T12:11:16;3.38;;;0.68;;
76903;SDS011;65865;51.698;-0.292;2023-02-23T12:13:45;2.50;;;0.50;;
76903;SDS011;65865;51.698;-0.292;2023-02-23T12:18:58;2.20;;;0.50;;
76903;SDS011;65865;51.698;-0.292;2023-02-23T12:21:30;3.67;;;0.60;;
76903;SDS011;65865;51.698;-0.292;2023-02-23T12:24:09;4.63;;;0.77;;
76903;SDS011;65865;51.698;-0.292;2023-02-23T12:26:42;5.35;;;0.73;;
76903;SDS011;65865;51.698;-0.292;2023-02-23T12:29:15;3.22;;;0.50;;
76903;SDS011;65865;51.698;-0.292;2023-02-23T12:34:18;3.22;;;0.40;;
76903;SDS011;65865;51.698;-0.292;2023-02-23T12:36:47;3.65;;;0.73;;
76903;SDS011;65865;51.698;-0.292;2023-02-23T12:41:57;3.95;;;0.50;;
76903;SDS011;65865;51.698;-0.292;2023-02-23T12:46:58;3.45;;;0.43;;
76903;SDS011;65865;51.698;-0.292;2023-02-23T12:49:33;2.88;;;0.60;;
76903;SDS011;65865;51.698;-0.292;2023-02-23T12:52:01;3.17;;;1.30;;
76903;SDS011;65865;51.698;-0.292;2023-02-23T12:54:32;4.75;;;1.02;;
76903;SDS011;65865;51.698;-0.292;2023-02-23T12:57:03;5.00;;;0.80;;
76903;SDS011;65865;51.698;-0.292;2023-02-23T13:02:00;4.43;;;0.80;;
76903;SDS011;65865;51.698;-0.292;2023-02-23T13:24:44;3.33;;;0.60;;
76903;SDS011;65865;51.698;-0.292;2023-02-23T13:27:26;2.30;;;0.40;;
76903;SDS011;65865;51.698;-0.292;2023-02-23T13:29:52;2.28;;;0.38;;
76903;SDS011;65865;51.698;-0.292;2023-02-23T13:32:23;2.28;;;0.47;;
76903;SDS011;65865;51.698;-0.292;2023-02-23T13:34:50;3.55;;;0.60;;
76903;SDS011;65865;51.698;-0.292;2023-02-23T13:37:20;2.50;;;0.60;;
76903;SDS011;65865;51.698;-0.292;2023-02-23T13:42:22;2.15;;;0.40;;
76903;SDS011;65865;51.698;-0.292;2023-02-23T13:47:47;3.03;;;0.38;;
76903;SDS011;65865;51.698;-0.292;2023-02-23T13:52:45;2.47;;;0.52;;
76903;SDS011;65865;51.698;-0.292;2023-02-23T13:58:04;2.42;;;0.38;;
76903;SDS011;65865;51.698;-0.292;2023-02-23T14:00:31;3.25;;;0.70;;
76903;SDS011;65865;51.698;-0.292;2023-02-23T14:03:00;3.17;;;0.57;;
76903;SDS011;65865;51.698;-0.292;2023-02-23T14:05:28;1.98;;;0.25;;
76903;SDS011;65865;51.698;-0.292;2023-02-23T14:08:02;3.83;;;0.45;;
76903;SDS011;65865;51.698;-0.292;2023-02-23T14:10:39;2.78;;;0.30;;
76903;SDS011;65865;51.698;-0.292;2023-02-23T14:18:26;3.75;;;0.40;;
76903;SDS011;65865;51.698;-0.292;2023-02-23T14:28:40;2.05;;;0.30;;
76903;SDS011;65865;51.698;-0.292;2023-02-23T14:36:02;1.25;;;0.20;;
76903;SDS011;65865;51.698;-0.292;2023-02-23T14:41:29;2.55;;;0.63;;
76903;SDS011;65865;51.698;-0.292;2023-02-23T14:43:59;2.30;;;0.50;;
76903;SDS011;65865;51.698;-0.292;2023-02-23T14:46:31;2.78;;;0.40;;
76903;SDS011;65865;51.698;-0.292;2023-02-23T14:51:29;2.33;;;0.30;;
76903;SDS011;65865;51.698;-0.292;2023-02-23T14:53:57;1.55;;;0.55;;
76903;SDS011;65865;51.698;-0.292;2023-02-23T14:56:23;2.05;;;0.40;;
76903;SDS011;65865;51.698;-0.292;2023-02-23T14:58:53;2.83;;;0.57;;
76903;SDS011;65865;51.698;-0.292;2023-02-23T15:01:32;4.05;;;0.40;;
76903;SDS011;65865;51.698;-0.292;2023-02-23T15:04:05;2.05;;;0.32;;
76903;SDS011;65865;51.698;-0.292;2023-02-23T15:06:31;1.83;;;0.30;;
76903;SDS011;65865;51.698;-0.292;2023-02-23T15:08:57;2.13;;;0.32;;
76903;SDS011;65865;51.698;-0.292;2023-02-23T15:11:23;1.67;;;0.40;;
76903;SDS011;65865;51.698;-0.292;2023-02-23T15:13:50;1.83;;;0.30;;
76903;SDS011;65865;51.698;-0.292;2023-02-23T15:16:20;2.20;;;0.38;;
76903;SDS011;65865;51.698;-0.292;2023-02-23T15:18:48;2.80;;;0.38;;
76903;SDS011;65865;51.698;-0.292;2023-02-23T15:21:17;1.20;;;0.20;;
76903;SDS011;65865;51.698;-0.292;2023-02-23T15:23:44;1.80;;;0.30;;
76903;SDS011;65865;51.698;-0.292;2023-02-23T15:26:17;1.65;;;0.25;;
76903;SDS011;65865;51.698;-0.292;2023-02-23T15:28:44;2.55;;;0.30;;
76903;SDS011;65865;51.698;-0.292;2023-02-23T15:31:11;2.58;;;0.30;;
76903;SDS011;65865;51.698;-0.292;2023-02-23T15:33:37;1.23;;;0.30;;
76903;SDS011;65865;51.698;-0.292;2023-02-23T15:36:07;1.55;;;0.40;;
76903;SDS011;65865;51.698;-0.292;2023-02-23T15:38:34;3.00;;;0.40;;
76903;SDS011;65865;51.698;-0.292;2023-02-23T15:41:04;2.08;;;0.20;;
76903;SDS011;65865;51.698;-0.292;2023-02-23T15:43:32;2.10;;;0.40;;
76903;SDS011;65865;51.698;-0.292;2023-02-23T15:45:59;2.33;;;0.40;;
76903;SDS011;65865;51.698;-0.292;2023-02-23T15:48:30;2.83;;;0.55;;
76903;SDS011;65865;51.698;-0.292;2023-02-23T15:51:03;2.25;;;0.38;;
76903;SDS011;65865;51.698;-0.292;2023-02-23T15:53:37;2.78;;;0.50;;
76903;SDS011;65865;51.698;-0.292;2023-02-23T15:59:14;2.13;;;0.40;;
76903;SDS011;65865;51.698;-0.292;2023-02-23T16:01:41;1.45;;;0.30;;
76903;SDS011;65865;51.698;-0.292;2023-02-23T16:06:54;2.30;;;0.40;;
76903;SDS011;65865;51.698;-0.292;2023-02-23T16:09:23;1.02;;;0.20;;
76903;SDS011;65865;51.698;-0.292;2023-02-23T16:11:51;2.20;;;0.30;;
76903;SDS011;65865;51.698;-0.292;2023-02-23T16:14:17;1.42;;;0.30;;
76903;SDS011;65865;51.698;-0.292;2023-02-23T16:16:44;2.22;;;0.43;;
76903;SDS011;65865;51.698;-0.292;2023-02-23T16:19:14;2.35;;;0.40;;
76903;SDS011;65865;51.698;-0.292;2023-02-23T16:21:40;2.85;;;0.30;;
76903;SDS011;65865;51.698;-0.292;2023-02-23T16:24:11;1.52;;;0.35;;
76903;SDS011;65865;51.698;-0.292;2023-02-23T16:29:35;1.55;;;0.35;;
76903;SDS011;65865;51.698;-0.292;2023-02-23T16:32:10;2.40;;;0.40;;
76903;SDS011;65865;51.698;-0.292;2023-02-23T16:37:19;1.73;;;0.20;;
76903;SDS011;65865;51.698;-0.292;2023-02-23T16:39:47;3.13;;;0.40;;
76903;SDS011;65865;51.698;-0.292;2023-02-23T16:42:21;2.25;;;0.43;;
76903;SDS011;65865;51.698;-0.292;2023-02-23T16:44:48;1.40;;;0.40;;
76903;SDS011;65865;51.698;-0.292;2023-02-23T16:47:56;3.08;;;0.32;;
76903;SDS011;65865;51.698;-0.292;2023-02-23T16:50:10;3.00;;;0.45;;
76903;SDS011;65865;51.698;-0.292;2023-02-23T16:52:41;4.50;;;0.68;;
76903;SDS011;65865;51.698;-0.292;2023-02-23T16:55:11;3.22;;;0.47;;
76903;SDS011;65865;51.698;-0.292;2023-02-23T16:57:42;3.10;;;0.60;;
76903;SDS011;65865;51.698;-0.292;2023-02-23T17:00:09;2.75;;;0.40;;
76903;SDS011;65865;51.698;-0.292;2023-02-23T17:02:45;4.28;;;0.60;;
76903;SDS011;65865;51.698;-0.292;2023-02-23T17:05:11;5.25;;;0.68;;
76903;SDS011;65865;51.698;-0.292;2023-02-23T17:07:38;1.92;;;0.32;;
76903;SDS011;65865;51.698;-0.292;2023-02-23T17:10:05;2.88;;;0.50;;
76903;SDS011;65865;51.698;-0.292;2023-02-23T17:12:34;3.67;;;0.43;;
76903;SDS011;65865;51.698;-0.292;2023-02-23T17:15:01;3.60;;;0.60;;
76903;SDS011;65865;51.698;-0.292;2023-02-23T17:17:28;3.63;;;0.60;;
76903;SDS011;65865;51.698;-0.292;2023-02-23T17:19:55;2.97;;;0.60;;
76903;SDS011;65865;51.698;-0.292;2023-02-23T17:22:21;2.90;;;0.50;;
76903;SDS011;65865;51.698;-0.292;2023-02-23T17:24:47;1.63;;;0.40;;